Time;durP1;ratioP1;P1;durP2;ratioP2;P2;SDS_P1;SDS_P2;PMS_P1;PMS_P2;Temp;Humidity;BMP_temperature;BMP_pressure;BME280_temperature;BME280_humidity;BME280_pressure;Samples;Min_cycle;Max_cycle;Signal;HPM_P1;HPM_P2
2021/08/19 00:01:27;;;;;;;5.38;1.70;;;;;;;14.80;100.00;96284.19;5062364;28;20033;-82
2021/08/19 00:03:53;;;;;;;4.88;2.75;;;;;;;14.80;100.00;96287.66;5064579;28;20035;-82
2021/08/19 00:06:19;;;;;;;7.68;3.78;;;;;;;14.74;100.00;96285.72;5075293;28;20388;-83
2021/08/19 00:08:45;;;;;;;3.28;1.85;;;;;;;14.74;100.00;96277.78;5061196;28;20036;-82
2021/08/19 00:11:12;;;;;;;3.75;1.98;;;;;;;14.72;100.00;96277.19;5065988;28;20063;-82
2021/08/19 00:13:39;;;;;;;1.13;1.00;;;;;;;14.73;100.00;96278.00;5067898;28;20030;-82
2021/08/19 00:16:07;;;;;;;2.05;1.33;;;;;;;14.71;100.00;96280.00;5057446;28;20024;-82
2021/08/19 00:18:33;;;;;;;2.33;1.38;;;;;;;14.80;100.00;96277.06;5061530;28;20048;-81
2021/08/19 00:21:04;;;;;;;2.40;1.20;;;;;;;14.67;100.00;96268.13;5053213;28;20021;-82
2021/08/19 00:23:31;;;;;;;3.45;1.20;;;;;;;14.74;100.00;96272.50;5061043;28;20086;-82
2021/08/19 00:25:57;;;;;;;2.58;1.00;;;;;;;14.68;100.00;96265.28;5066745;28;20016;-82
2021/08/19 00:28:22;;;;;;;3.97;1.25;;;;;;;14.68;100.00;96269.75;5085106;28;20029;-81
2021/08/19 00:30:48;;;;;;;2.30;1.20;;;;;;;14.70;100.00;96265.13;5084128;28;20020;-82
2021/08/19 00:33:14;;;;;;;3.42;1.50;;;;;;;14.65;100.00;96259.53;5079191;28;20036;-82
2021/08/19 00:35:40;;;;;;;3.63;1.15;;;;;;;14.62;100.00;96274.00;5058635;28;20055;-81
2021/08/19 00:38:06;;;;;;;4.43;1.00;;;;;;;14.58;100.00;96264.75;5074721;28;20036;-81
2021/08/19 00:40:33;;;;;;;2.00;1.30;;;;;;;14.64;100.00;96263.22;5059471;28;20039;-80
2021/08/19 00:43:01;;;;;;;2.33;1.30;;;;;;;14.60;100.00;96260.09;5075078;28;20052;-79
2021/08/19 00:45:28;;;;;;;2.28;1.10;;;;;;;14.63;100.00;96251.81;5075096;28;20043;-82
2021/08/19 00:48:36;;;;;;;2.97;1.30;;;;;;;14.60;100.00;96252.16;5077059;28;20035;-80
2021/08/19 00:51:01;;;;;;;1.95;1.05;;;;;;;14.64;100.00;96247.31;5084183;28;20040;-79
2021/08/19 00:53:27;;;;;;;2.42;1.42;;;;;;;14.66;100.00;96254.09;5071108;28;20078;-80
2021/08/19 00:55:53;;;;;;;1.83;1.05;;;;;;;14.60;100.00;96244.22;5061029;28;20040;-80
2021/08/19 00:58:20;;;;;;;2.58;1.45;;;;;;;14.63;100.00;96256.28;5084885;28;20102;-80
2021/08/19 01:00:46;;;;;;;2.80;1.40;;;;;;;14.61;100.00;96254.63;5068917;28;20036;-81
2021/08/19 01:03:12;;;;;;;2.20;1.50;;;;;;;14.56;100.00;96250.91;5070115;28;20046;-80
2021/08/19 01:05:41;;;;;;;3.97;2.00;;;;;;;14.56;100.00;96251.72;5060724;28;20111;-80
2021/08/19 01:08:08;;;;;;;3.20;1.75;;;;;;;14.53;100.00;96248.63;5073401;28;20033;-80
2021/08/19 01:10:35;;;;;;;5.13;2.20;;;;;;;14.56;100.00;96246.41;5073416;28;20024;-80
2021/08/19 01:13:01;;;;;;;3.63;2.17;;;;;;;14.58;100.00;96238.28;5055586;28;20111;-81
2021/08/19 01:15:27;;;;;;;5.80;2.35;;;;;;;14.58;100.00;96251.53;5075662;28;20041;-80
2021/08/19 01:17:55;;;;;;;4.28;2.45;;;;;;;14.55;100.00;96249.25;5053821;28;20096;-80
2021/08/19 01:20:30;;;;;;;4.25;2.05;;;;;;;14.49;100.00;96247.31;5071200;28;20081;-80
2021/08/19 01:22:57;;;;;;;4.15;2.03;;;;;;;14.53;100.00;96251.25;5056251;28;20033;-80
2021/08/19 01:25:24;;;;;;;5.80;2.13;;;;;;;14.46;100.00;96255.63;5076387;28;20032;-80
2021/08/19 01:27:54;;;;;;;4.15;2.25;;;;;;;14.50;100.00;96251.59;5076606;28;20054;-80
2021/08/19 01:30:21;;;;;;;3.50;1.80;;;;;;;14.51;100.00;96253.25;5061319;28;20067;-81
2021/08/19 01:32:47;;;;;;;3.25;1.83;;;;;;;14.41;100.00;96256.16;5065377;28;20529;-79
2021/08/19 01:35:19;;;;;;;3.53;1.60;;;;;;;14.48;100.00;96254.41;5063524;28;20473;-79
2021/08/19 01:37:45;;;;;;;2.78;1.45;;;;;;;14.36;100.00;96259.34;5074444;28;20584;-80
2021/08/19 01:40:11;;;;;;;4.85;2.00;;;;;;;14.32;100.00;96259.91;5084149;28;20020;-80
2021/08/19 01:42:37;;;;;;;4.13;2.00;;;;;;;14.28;100.00;96264.72;5075949;28;20082;-80
2021/08/19 01:45:04;;;;;;;3.23;2.00;;;;;;;14.29;100.00;96257.63;5078088;28;20017;-81
2021/08/19 01:47:30;;;;;;;4.55;2.00;;;;;;;14.23;100.00;96261.00;5071802;28;20064;-80
2021/08/19 01:49:56;;;;;;;4.00;1.98;;;;;;;14.22;100.00;96252.25;5057888;28;20059;-81
2021/08/19 01:52:23;;;;;;;5.32;1.90;;;;;;;14.17;100.00;96251.94;5064534;28;20040;-80
2021/08/19 01:54:49;;;;;;;3.47;1.55;;;;;;;14.17;100.00;96251.94;5070665;28;20024;-81
2021/08/19 01:57:15;;;;;;;3.42;1.60;;;;;;;14.06;100.00;96252.41;5057844;28;20107;-80
2021/08/19 01:59:40;;;;;;;4.82;2.10;;;;;;;13.97;100.00;96250.81;5082384;28;20038;-82
2021/08/19 02:02:06;;;;;;;4.05;2.08;;;;;;;13.98;100.00;96248.00;5060696;28;20021;-81
2021/08/19 02:04:32;;;;;;;3.67;1.92;;;;;;;13.90;100.00;96243.59;5076851;28;20721;-80
2021/08/19 02:06:57;;;;;;;3.35;1.98;;;;;;;13.89;100.00;96254.38;5086109;28;20051;-81
2021/08/19 02:09:23;;;;;;;3.58;2.33;;;;;;;13.82;100.00;96256.91;5068754;28;20036;-80
2021/08/19 02:11:49;;;;;;;3.40;1.85;;;;;;;13.83;100.00;96244.50;5065849;28;20029;-81
2021/08/19 02:14:15;;;;;;;6.55;1.90;;;;;;;13.87;100.00;96245.78;5059518;28;20032;-82
2021/08/19 02:16:40;;;;;;;3.00;1.77;;;;;;;13.85;100.00;96245.16;5064344;28;20813;-80
2021/08/19 02:19:07;;;;;;;3.80;1.70;;;;;;;13.83;100.00;96250.63;5081577;28;20033;-81
2021/08/19 02:21:33;;;;;;;3.13;1.60;;;;;;;13.87;100.00;96246.59;5082306;28;20028;-80
2021/08/19 02:23:59;;;;;;;4.83;1.90;;;;;;;13.93;100.00;96245.06;5091920;28;20275;-82
2021/08/19 02:26:24;;;;;;;4.30;2.10;;;;;;;13.96;100.00;96251.84;5087974;28;20032;-80
2021/08/19 02:28:50;;;;;;;5.33;2.20;;;;;;;13.93;100.00;96255.66;5073352;28;20070;-80
2021/08/19 02:31:16;;;;;;;3.38;1.85;;;;;;;13.98;100.00;96255.09;5075243;28;20033;-80
2021/08/19 02:33:42;;;;;;;4.00;1.80;;;;;;;13.94;100.00;96245.91;5066690;28;20068;-79
2021/08/19 02:36:07;;;;;;;4.20;2.10;;;;;;;13.96;100.00;96249.19;5078274;28;20382;-79
2021/08/19 02:38:33;;;;;;;4.60;2.40;;;;;;;13.99;100.00;96248.84;5084054;28;20052;-79
2021/08/19 02:40:59;;;;;;;3.42;2.30;;;;;;;13.99;100.00;96249.66;5067344;28;20508;-80
2021/08/19 02:43:24;;;;;;;4.43;2.33;;;;;;;13.98;100.00;96247.16;5094553;28;20039;-81
2021/08/19 02:45:50;;;;;;;4.90;2.80;;;;;;;14.02;100.00;96248.47;5086981;28;20032;-79
2021/08/19 02:48:16;;;;;;;4.28;2.45;;;;;;;14.03;100.00;96250.13;5066855;28;20233;-82
2021/08/19 02:50:41;;;;;;;4.47;2.55;;;;;;;14.05;100.00;96248.94;5076457;28;20020;-80
2021/08/19 02:53:07;;;;;;;4.17;2.73;;;;;;;14.08;100.00;96248.56;5060804;28;20028;-82
2021/08/19 02:55:33;;;;;;;5.63;2.47;;;;;;;14.05;100.00;96240.16;5051693;28;20095;-80
2021/08/19 02:57:58;;;;;;;3.97;2.55;;;;;;;14.08;100.00;96238.00;5081479;28;20136;-82
2021/08/19 03:00:24;;;;;;;5.57;2.63;;;;;;;14.06;100.00;96244.47;5069895;28;20047;-80
2021/08/19 03:02:51;;;;;;;5.60;3.00;;;;;;;13.99;100.00;96246.19;5073581;28;20058;-80
2021/08/19 03:05:17;;;;;;;5.43;2.75;;;;;;;14.03;100.00;96245.63;5075890;28;20036;-79
2021/08/19 03:07:42;;;;;;;5.32;3.28;;;;;;;13.98;100.00;96242.69;5073418;28;20036;-81
2021/08/19 03:10:09;;;;;;;5.55;2.90;;;;;;;14.04;100.00;96244.63;5085366;28;20047;-80
2021/08/19 03:12:35;;;;;;;5.55;2.78;;;;;;;14.01;100.00;96247.63;5078984;28;20036;-80
2021/08/19 03:15:00;;;;;;;4.78;2.60;;;;;;;14.02;100.00;96240.53;5057963;28;20032;-80
2021/08/19 03:17:27;;;;;;;4.72;2.85;;;;;;;14.05;100.00;96243.66;5073628;28;20032;-80
2021/08/19 03:19:52;;;;;;;6.13;3.17;;;;;;;14.09;100.00;96241.47;5080896;28;20082;-79
2021/08/19 03:22:19;;;;;;;5.68;2.60;;;;;;;14.06;100.00;96242.63;5086650;28;20037;-80
2021/08/19 03:24:45;;;;;;;6.15;2.75;;;;;;;14.07;100.00;96238.97;5082270;28;20030;-79
2021/08/19 03:27:13;;;;;;;7.30;2.95;;;;;;;14.04;100.00;96233.22;5074966;28;20024;-79
2021/08/19 03:29:38;;;;;;;5.53;2.83;;;;;;;14.03;100.00;96240.34;5084359;28;20020;-79
2021/08/19 03:32:05;;;;;;;4.68;2.88;;;;;;;14.08;100.00;96237.16;5073232;28;20062;-80
2021/08/19 03:34:31;;;;;;;10.23;2.97;;;;;;;14.08;100.00;96237.16;5064985;28;20033;-81
2021/08/19 03:36:56;;;;;;;4.03;2.47;;;;;;;14.04;100.00;96225.31;5055572;28;20120;-81
2021/08/19 03:39:26;;;;;;;4.78;2.67;;;;;;;14.06;100.00;96233.88;5056812;28;20025;-80
2021/08/19 03:41:52;;;;;;;5.57;2.70;;;;;;;14.06;100.00;96233.88;5070264;28;20390;-80
2021/08/19 03:44:18;;;;;;;5.43;2.50;;;;;;;14.06;100.00;96231.25;5076793;28;20101;-80
2021/08/19 03:46:46;;;;;;;4.85;2.75;;;;;;;14.05;100.00;96233.06;5059047;28;20035;-80
2021/08/19 03:49:13;;;;;;;5.13;2.42;;;;;;;14.07;100.00;96240.81;5066730;28;20476;-81
2021/08/19 03:51:39;;;;;;;5.15;3.08;;;;;;;14.06;100.00;96237.34;5087409;28;20054;-81
2021/08/19 03:54:05;;;;;;;4.25;2.63;;;;;;;14.08;100.00;96232.72;5068829;28;20585;-80
2021/08/19 03:56:32;;;;;;;4.82;3.13;;;;;;;14.14;100.00;96239.09;5077738;28;20044;-80
2021/08/19 03:58:58;;;;;;;5.47;2.90;;;;;;;14.12;100.00;96239.28;5062494;28;20647;-80
2021/08/19 04:01:24;;;;;;;4.20;2.42;;;;;;;14.12;100.00;96238.47;5075507;28;20060;-81
2021/08/19 04:03:51;;;;;;;5.00;2.85;;;;;;;14.13;100.00;96234.81;5080853;28;20591;-80
2021/08/19 04:06:17;;;;;;;4.80;2.97;;;;;;;14.09;100.00;96242.28;5069352;28;20047;-80
2021/08/19 04:08:43;;;;;;;5.70;3.40;;;;;;;14.07;100.00;96233.69;5063037;28;20111;-80
2021/08/19 04:11:09;;;;;;;5.25;3.00;;;;;;;14.07;100.00;96244.28;5058910;28;20028;-80
2021/08/19 04:13:36;;;;;;;6.32;3.50;;;;;;;14.07;100.00;96238.16;5068750;28;20656;-81
2021/08/19 04:16:02;;;;;;;5.80;3.00;;;;;;;14.09;100.00;96244.09;5072521;28;20024;-80
2021/08/19 04:18:28;;;;;;;6.15;3.17;;;;;;;14.11;100.00;96239.44;5063222;28;20101;-80
2021/08/19 04:20:53;;;;;;;5.57;3.10;;;;;;;14.13;100.00;96242.75;5079263;28;20040;-80
2021/08/19 04:23:20;;;;;;;5.97;2.80;;;;;;;14.05;100.00;96245.44;5058604;28;20052;-81
2021/08/19 04:25:46;;;;;;;5.97;3.60;;;;;;;14.05;100.00;96243.66;5057279;28;20028;-80
2021/08/19 04:28:11;;;;;;;8.20;3.38;;;;;;;14.03;100.00;96245.63;5083441;28;20028;-79
2021/08/19 04:30:37;;;;;;;7.68;2.80;;;;;;;13.98;100.00;96239.25;5057088;28;20040;-80
2021/08/19 04:33:03;;;;;;;5.30;3.03;;;;;;;13.99;100.00;96238.25;5063437;28;20066;-81
2021/08/19 04:35:32;;;;;;;6.35;3.25;;;;;;;13.99;100.00;96243.53;5078904;28;20522;-79
2021/08/19 04:37:59;;;;;;;4.83;2.73;;;;;;;14.04;100.00;96244.63;5059788;28;20028;-80
2021/08/19 04:40:25;;;;;;;6.90;3.17;;;;;;;14.05;100.00;96242.81;5072526;28;20025;-81
2021/08/19 04:42:50;;;;;;;7.65;3.00;;;;;;;14.09;100.00;96241.47;5064073;28;20569;-80
2021/08/19 04:45:16;;;;;;;6.50;3.10;;;;;;;14.08;100.00;96239.78;5068148;28;20095;-80
2021/08/19 04:47:43;;;;;;;6.80;3.10;;;;;;;14.06;100.00;96239.19;5064040;28;20071;-80
2021/08/19 04:50:09;;;;;;;8.85;3.83;;;;;;;14.03;100.00;96243.00;5078676;28;20020;-80
2021/08/19 04:52:35;;;;;;;4.68;2.63;;;;;;;14.08;100.00;96242.44;5066849;28;20042;-80
2021/08/19 04:55:02;;;;;;;6.55;3.20;;;;;;;14.10;100.00;96240.44;5072846;28;20052;-79
2021/08/19 04:57:28;;;;;;;5.15;2.70;;;;;;;14.11;100.00;96242.91;5055763;28;20555;-80
2021/08/19 04:59:53;;;;;;;6.15;2.95;;;;;;;14.13;100.00;96234.81;5069576;28;20088;-80
2021/08/19 05:02:19;;;;;;;6.30;2.75;;;;;;;14.04;100.00;96238.53;5048480;28;20028;-78
2021/08/19 05:04:45;;;;;;;5.72;2.95;;;;;;;14.11;100.00;96237.59;5070656;28;20024;-78
2021/08/19 05:07:10;;;;;;;5.47;3.40;;;;;;;14.20;100.00;96238.34;5070623;28;20048;-78
2021/08/19 05:09:36;;;;;;;5.10;2.80;;;;;;;14.19;100.00;96234.09;5054135;28;20029;-79
2021/08/19 05:12:02;;;;;;;5.57;3.30;;;;;;;14.15;100.00;96238.06;5081276;28;20099;-78
2021/08/19 05:14:28;;;;;;;4.18;2.70;;;;;;;14.16;100.00;96245.03;5065939;28;20506;-78
2021/08/19 05:16:53;;;;;;;8.00;3.13;;;;;;;14.20;100.00;96238.34;5061503;28;20204;-78
2021/08/19 05:19:19;;;;;;;4.43;2.33;;;;;;;14.22;100.00;96241.66;5069795;28;20116;-78
2021/08/19 05:21:45;;;;;;;4.68;2.63;;;;;;;14.23;100.00;96240.66;5079712;28;20024;-79
2021/08/19 05:24:11;;;;;;;3.80;2.35;;;;;;;14.29;100.00;96244.41;5077910;28;20035;-78
2021/08/19 05:26:37;;;;;;;5.97;3.17;;;;;;;14.27;100.00;96249.03;5061587;28;20032;-78
2021/08/19 05:29:03;;;;;;;3.92;2.28;;;;;;;14.26;100.00;96245.56;5059000;28;20282;-78
2021/08/19 05:31:29;;;;;;;4.22;2.75;;;;;;;14.32;100.00;96247.50;5079242;28;20017;-79
2021/08/19 05:33:55;;;;;;;4.50;2.28;;;;;;;14.35;100.00;96249.78;5062804;28;20116;-79
2021/08/19 05:36:21;;;;;;;3.35;2.25;;;;;;;14.38;100.00;96254.72;5077328;28;20028;-78
2021/08/19 05:38:47;;;;;;;3.90;2.23;;;;;;;14.38;100.00;96257.34;5063843;28;20031;-79
2021/08/19 05:41:13;;;;;;;6.40;3.00;;;;;;;14.45;100.00;96261.88;5080787;28;20389;-79
2021/08/19 05:43:39;;;;;;;5.18;2.50;;;;;;;14.42;100.00;96263.09;5081776;28;20064;-79
2021/08/19 05:46:08;;;;;;;4.85;2.67;;;;;;;14.44;100.00;96262.91;5081249;28;20366;-78
2021/08/19 05:48:34;;;;;;;5.80;2.50;;;;;;;14.47;100.00;96258.06;5067974;28;20438;-78
2021/08/19 05:51:00;;;;;;;3.90;2.67;;;;;;;14.46;100.00;96263.56;5072850;28;20032;-78
2021/08/19 05:53:25;;;;;;;4.57;2.55;;;;;;;14.53;100.00;96259.19;5088645;28;20039;-78
2021/08/19 05:55:51;;;;;;;4.00;2.47;;;;;;;14.51;100.00;96258.56;5076804;28;20098;-78
2021/08/19 05:58:17;;;;;;;4.43;2.53;;;;;;;14.46;100.00;96248.50;5073888;28;20033;-79
2021/08/19 06:00:47;;;;;;;4.50;2.53;;;;;;;14.46;100.00;96264.38;5075468;28;20059;-78
2021/08/19 06:03:17;;;;;;;6.50;2.40;;;;;;;14.45;100.00;96261.88;5065493;28;20097;-79
2021/08/19 06:05:43;;;;;;;5.65;3.15;;;;;;;14.50;100.00;96262.19;5073631;28;20032;-78
2021/08/19 06:08:09;;;;;;;5.90;2.80;;;;;;;14.57;100.00;96263.13;5055404;28;20028;-79
2021/08/19 06:10:35;;;;;;;4.95;2.67;;;;;;;14.65;100.00;96267.47;5078310;28;20032;-78
2021/08/19 06:13:01;;;;;;;5.43;2.15;;;;;;;14.76;100.00;96264.38;5059223;28;20044;-79
2021/08/19 06:15:28;;;;;;;3.97;2.70;;;;;;;14.90;100.00;96275.97;5055382;28;20082;-78
2021/08/19 06:17:53;;;;;;;4.65;2.45;;;;;;;14.93;100.00;96263.19;5075082;28;20037;-78
2021/08/19 06:20:19;;;;;;;4.40;2.33;;;;;;;14.91;100.00;96265.19;5067791;28;20046;-78
2021/08/19 06:22:45;;;;;;;6.65;3.55;;;;;;;15.03;100.00;96263.69;5068308;28;20548;-79
2021/08/19 06:25:12;;;;;;;5.50;3.53;;;;;;;15.14;100.00;96265.03;5070280;28;20039;-78
2021/08/19 06:27:38;;;;;;;3.88;2.05;;;;;;;15.19;100.00;96267.13;5074582;28;20109;-78
2021/08/19 06:30:05;;;;;;;3.55;2.00;;;;;;;15.36;100.00;96267.69;5082192;28;20020;-78
2021/08/19 06:32:31;;;;;;;3.17;1.73;;;;;;;15.36;100.00;96273.00;5070871;28;20580;-79
2021/08/19 06:34:57;;;;;;;4.43;2.65;;;;;;;15.45;100.00;96269.22;5080160;28;20024;-78
2021/08/19 06:37:22;;;;;;;4.35;2.13;;;;;;;15.47;100.00;96272.53;5071758;28;20036;-78
2021/08/19 06:39:48;;;;;;;4.13;2.20;;;;;;;15.56;100.00;96271.41;5072333;28;20028;-78
2021/08/19 06:42:14;;;;;;;3.28;1.88;;;;;;;15.77;100.00;96278.53;5075673;28;20049;-79
2021/08/19 06:44:39;;;;;;;3.53;2.00;;;;;;;15.89;100.00;96274.34;5075301;28;20088;-79
2021/08/19 06:47:05;;;;;;;4.30;1.92;;;;;;;15.91;99.30;96274.16;5068454;28;20082;-79
2021/08/19 06:49:31;;;;;;;3.10;1.75;;;;;;;15.69;99.10;96279.50;5072750;28;20610;-78
2021/08/19 06:51:56;;;;;;;4.50;1.92;;;;;;;15.79;98.84;96276.50;5079739;28;20040;-79
2021/08/19 06:54:22;;;;;;;4.55;2.35;;;;;;;15.90;98.29;96277.84;5071521;28;20064;-78
2021/08/19 06:56:48;;;;;;;3.63;1.85;;;;;;;15.76;99.12;96277.72;5064210;28;20060;-79
2021/08/19 06:59:13;;;;;;;3.13;1.85;;;;;;;15.92;98.35;96273.16;5060362;28;20060;-79
2021/08/19 07:01:39;;;;;;;3.97;1.83;;;;;;;16.09;98.85;96271.03;5058695;28;20033;-79
2021/08/19 07:04:05;;;;;;;3.25;1.80;;;;;;;16.17;97.10;96273.56;5072830;28;20028;-79
2021/08/19 07:06:30;;;;;;;4.72;1.60;;;;;;;16.29;96.75;96281.78;5064950;28;20089;-78
2021/08/19 07:08:56;;;;;;;3.97;1.85;;;;;;;16.35;95.81;96278.38;5050348;28;20025;-79
2021/08/19 07:11:22;;;;;;;3.17;1.70;;;;;;;16.44;94.50;96278.03;5085450;28;20044;-79
2021/08/19 07:13:50;;;;;;;3.35;1.60;;;;;;;16.73;94.32;96271.66;5065500;28;20054;-79
2021/08/19 07:16:16;;;;;;;3.25;1.58;;;;;;;16.96;92.70;96273.22;5078578;28;20123;-80
2021/08/19 07:18:41;;;;;;;4.00;1.55;;;;;;;16.95;91.58;96268.91;5064948;28;20025;-79
2021/08/19 07:21:07;;;;;;;3.75;1.52;;;;;;;17.11;91.62;96268.59;5079542;28;20093;-81
2021/08/19 07:23:33;;;;;;;3.88;1.60;;;;;;;17.27;90.96;96262.09;5078417;28;20029;-82
2021/08/19 07:26:00;;;;;;;3.25;1.50;;;;;;;17.44;88.77;96268.69;5090476;28;20024;-82
2021/08/19 07:28:26;;;;;;;3.90;1.60;;;;;;;17.10;89.03;96269.59;5068830;28;20040;-82
2021/08/19 07:30:51;;;;;;;2.85;1.50;;;;;;;16.86;90.22;96270.91;5064483;28;20066;-81
2021/08/19 07:33:19;;;;;;;3.60;1.92;;;;;;;16.91;90.61;96270.34;5061498;28;20029;-81
2021/08/19 07:35:48;;;;;;;4.50;1.90;;;;;;;17.02;90.55;96283.06;5071665;28;20106;-81
2021/08/19 07:38:17;;;;;;;5.07;1.95;;;;;;;17.06;90.05;96272.84;5079531;28;20043;-81
2021/08/19 07:40:45;;;;;;;6.63;1.98;;;;;;;17.01;90.42;96273.44;5060568;28;20032;-81
2021/08/19 07:43:10;;;;;;;4.47;2.05;;;;;;;16.97;90.22;96274.88;5055445;28;20045;-81
2021/08/19 07:45:36;;;;;;;4.90;2.20;;;;;;;17.11;90.59;96276.56;5090102;28;20047;-80
2021/08/19 07:48:10;;;;;;;3.97;2.10;;;;;;;17.00;90.30;96277.13;5084944;28;20448;-81
2021/08/19 07:50:36;;;;;;;2.90;1.80;;;;;;;17.05;90.07;96280.00;5059391;28;20497;-81
2021/08/19 07:53:02;;;;;;;5.93;3.13;;;;;;;17.04;89.84;96278.38;5068134;28;20367;-81
2021/08/19 07:55:28;;;;;;;3.92;2.10;;;;;;;17.02;91.07;96280.41;5058720;28;20696;-81
2021/08/19 07:57:55;;;;;;;4.38;2.05;;;;;;;16.88;89.26;96284.03;5046139;28;20032;-82
2021/08/19 08:00:24;;;;;;;4.28;2.30;;;;;;;17.10;88.86;96280.25;5051566;28;20039;-81
2021/08/19 08:02:53;;;;;;;5.10;1.70;;;;;;;17.24;88.06;96281.09;5039649;28;20025;-81
2021/08/19 08:05:20;;;;;;;3.47;2.00;;;;;;;17.11;89.23;96284.53;5063443;28;20035;-81
2021/08/19 08:07:46;;;;;;;5.00;2.65;;;;;;;17.42;88.55;96280.53;5078238;28;20073;-81
2021/08/19 08:10:12;;;;;;;3.50;2.05;;;;;;;17.36;86.12;96287.44;5073131;28;20043;-81
2021/08/19 08:12:38;;;;;;;3.60;2.05;;;;;;;17.38;86.59;96289.94;5065278;28;20024;-81
2021/08/19 08:15:06;;;;;;;4.05;1.98;;;;;;;17.44;86.62;96281.97;5068079;28;20067;-81
2021/08/19 08:17:36;;;;;;;4.13;2.17;;;;;;;17.58;86.71;96287.31;5054190;28;20032;-81
2021/08/19 08:20:08;;;;;;;3.40;2.10;;;;;;;17.63;85.86;96287.50;5073955;28;20054;-82
2021/08/19 08:22:36;;;;;;;3.10;1.80;;;;;;;17.96;84.19;96289.44;5064524;28;20124;-81
2021/08/19 08:25:29;;;;;;;4.20;2.00;;;;;;;18.03;83.87;96293.72;5078165;28;20044;-81
2021/08/19 08:28:09;;;;;;;6.35;2.22;;;;;;;18.54;81.19;96293.09;5088683;28;20042;-81
2021/08/19 08:30:40;;;;;;;3.20;2.00;;;;;;;18.76;78.85;96295.53;5054692;28;20040;-81
2021/08/19 08:33:07;;;;;;;4.15;2.03;;;;;;;18.54;80.70;96303.75;5089640;28;20520;-80
2021/08/19 08:35:37;;;;;;;3.92;2.05;;;;;;;18.83;79.01;96296.31;5082960;28;20110;-81
2021/08/19 08:38:07;;;;;;;3.85;2.03;;;;;;;19.07;77.88;96295.63;5071598;28;20024;-81
2021/08/19 08:40:36;;;;;;;6.00;2.45;;;;;;;18.84;78.60;96297.94;5088684;28;20035;-81
2021/08/19 08:43:03;;;;;;;5.03;2.40;;;;;;;19.36;75.60;96290.78;5062124;28;20034;-81
2021/08/19 08:45:34;;;;;;;3.50;1.83;;;;;;;19.08;76.60;96297.28;5070734;28;20033;-82
2021/08/19 08:48:02;;;;;;;7.97;3.58;;;;;;;19.09;77.20;96298.09;5075101;28;20028;-82
2021/08/19 08:50:28;;;;;;;6.93;2.90;;;;;;;19.24;77.35;96297.81;5072647;28;20024;-82
2021/08/19 08:52:56;;;;;;;4.93;2.78;;;;;;;18.79;78.64;96298.59;5064797;28;20102;-81
2021/08/19 08:55:22;;;;;;;5.20;3.55;;;;;;;18.77;82.41;96291.81;5077432;28;20084;-81
2021/08/19 08:57:49;;;;;;;3.92;2.03;;;;;;;18.35;86.75;96293.94;5054729;28;20425;-80
2021/08/19 09:00:16;;;;;;;3.10;1.92;;;;;;;18.23;85.08;96287.59;5075482;28;20091;-81
2021/08/19 09:02:43;;;;;;;9.13;2.85;;;;;;;18.16;85.50;96292.09;5061481;28;20056;-80
2021/08/19 09:05:16;;;;;;;2.83;1.80;;;;;;;18.70;83.77;96294.47;5076911;28;20024;-83
2021/08/19 09:07:44;;;;;;;6.38;3.03;;;;;;;19.19;79.09;96292.31;5080791;28;20129;-80
2021/08/19 09:10:10;;;;;;;5.15;2.60;;;;;;;18.80;80.80;96292.22;5066424;28;20025;-81
2021/08/19 09:12:41;;;;;;;5.38;2.78;;;;;;;18.45;82.09;96297.00;5077869;28;20044;-80
2021/08/19 09:15:15;;;;;;;5.63;2.75;;;;;;;18.19;85.68;96291.69;5069029;28;20024;-81
2021/08/19 09:17:59;;;;;;;4.32;2.47;;;;;;;18.76;81.51;96295.53;5068581;28;20036;-80
2021/08/19 09:20:39;;;;;;;5.90;3.40;;;;;;;20.26;73.26;96282.59;5066265;28;20032;-80
2021/08/19 09:23:08;;;;;;;3.90;2.42;;;;;;;20.53;72.52;96283.22;5073617;28;20036;-81
2021/08/19 09:25:41;;;;;;;3.75;2.47;;;;;;;20.00;72.72;96279.13;5082860;28;20310;-81
2021/08/19 09:28:27;;;;;;;5.28;3.03;;;;;;;19.68;74.70;96286.31;5069778;28;20024;-80
2021/08/19 09:31:08;;;;;;;3.15;2.10;;;;;;;19.67;74.54;96286.53;5053397;28;20048;-81
2021/08/19 09:33:45;;;;;;;3.17;2.00;;;;;;;19.06;74.09;96288.66;5087622;28;20043;-81
2021/08/19 09:36:10;;;;;;;5.43;2.30;;;;;;;18.98;73.52;96290.72;5075615;28;20033;-81
2021/08/19 09:38:44;;;;;;;4.32;1.85;;;;;;;19.46;72.43;96291.13;5072084;28;20425;-81
2021/08/19 09:41:17;;;;;;;3.55;1.95;;;;;;;19.71;71.61;96280.53;5076892;28;20100;-81
2021/08/19 09:43:51;;;;;;;4.90;2.33;;;;;;;19.93;71.62;96282.88;5083475;28;20067;-81
2021/08/19 09:46:34;;;;;;;3.92;1.92;;;;;;;20.05;69.62;96282.97;5050479;28;20131;-81
2021/08/19 09:49:24;;;;;;;4.38;2.20;;;;;;;20.39;68.13;96276.34;5080261;28;20057;-81
2021/08/19 09:52:13;;;;;;;4.15;1.60;;;;;;;20.16;68.34;96276.94;5068420;28;20413;-81
2021/08/19 09:54:41;;;;;;;4.10;1.85;;;;;;;20.49;66.72;96276.66;5062136;28;20078;-81
2021/08/19 09:57:08;;;;;;;5.35;2.00;;;;;;;20.58;67.47;96279.88;5093487;28;20030;-80
2021/08/19 09:59:37;;;;;;;3.00;1.83;;;;;;;20.38;67.40;96275.50;5054481;28;20047;-81
2021/08/19 10:02:04;;;;;;;4.10;2.08;;;;;;;20.55;67.77;96274.97;5086449;28;20051;-81
2021/08/19 10:04:30;;;;;;;6.03;2.15;;;;;;;20.19;68.71;96277.31;5086131;28;20039;-77
2021/08/19 10:06:57;;;;;;;4.53;2.20;;;;;;;20.00;69.60;96280.97;5074964;28;20048;-81
2021/08/19 10:09:24;;;;;;;5.93;2.75;;;;;;;19.48;71.56;96286.44;5073961;28;20036;-79
2021/08/19 10:11:51;;;;;;;6.20;3.42;;;;;;;19.26;72.97;96295.75;5065039;28;20543;-79
2021/08/19 10:14:29;;;;;;;4.78;2.05;;;;;;;19.13;73.47;96291.28;5087153;28;20039;-79
2021/08/19 10:16:55;;;;;;;3.72;1.88;;;;;;;19.23;74.13;96283.66;5079104;28;20043;-79
2021/08/19 10:19:41;;;;;;;4.28;2.20;;;;;;;19.08;75.96;96281.28;5091149;28;20022;-78
2021/08/19 10:22:15;;;;;;;4.97;1.95;;;;;;;19.43;73.86;96283.56;5053078;28;20044;-80
2021/08/19 10:24:46;;;;;;;3.42;1.85;;;;;;;19.35;73.57;96283.81;5082703;28;20113;-81
2021/08/19 10:27:19;;;;;;;4.22;2.13;;;;;;;19.17;72.93;96284.50;5078039;28;20052;-81
2021/08/19 10:29:46;;;;;;;;;;;;;;;19.54;73.05;96280.22;5080814;28;20033;-81
2021/08/19 10:32:27;;;;;;;3.72;2.13;;;;;;;19.95;70.78;96276.28;5067992;28;19908;-83
2021/08/19 10:35:09;;;;;;;2.72;1.60;;;;;;;19.67;70.91;96273.19;5074825;28;20033;-84
2021/08/19 10:37:47;;;;;;;3.03;1.65;;;;;;;19.88;71.36;96280.84;5055250;28;20119;-80
2021/08/19 10:40:19;;;;;;;3.08;1.70;;;;;;;20.16;70.62;96276.94;5059521;28;20028;-79
2021/08/19 10:42:47;;;;;;;3.95;1.60;;;;;;;20.51;69.15;96277.25;5086421;28;20459;-80
2021/08/19 10:45:43;;;;;;;3.00;1.60;;;;;;;20.57;68.86;96271.03;5061499;28;20036;-79
2021/08/19 10:48:08;;;;;;;2.63;1.42;;;;;;;21.38;64.59;96269.91;5047736;28;20071;-83
2021/08/19 10:50:38;;;;;;;4.38;1.95;;;;;;;21.11;65.38;96263.25;5083477;28;20154;-80
2021/08/19 10:53:28;;;;;;;2.33;1.50;;;;;;;20.93;66.97;96275.59;5085569;28;20033;-80
2021/08/19 10:55:56;;;;;;;2.80;1.60;;;;;;;20.87;65.60;96264.97;5077173;28;20033;-83
2021/08/19 10:58:26;;;;;;;3.15;1.70;;;;;;;21.29;65.21;96265.06;5089362;28;20021;-80
2021/08/19 11:00:53;;;;;;;3.00;1.77;;;;;;;21.21;65.14;96263.50;5068957;28;20063;-78
2021/08/19 11:03:38;;;;;;;1.85;1.20;;;;;;;22.69;59.45;96266.41;5062473;28;20054;-79
2021/08/19 11:06:04;;;;;;;3.00;1.20;;;;;;;23.23;57.82;96253.59;5097865;28;20496;-79
2021/08/19 11:08:51;;;;;;;1.63;1.20;;;;;;;21.47;60.40;96262.38;5084697;28;20055;-80
2021/08/19 11:11:34;;;;;;;3.38;1.55;;;;;;;21.45;62.57;96252.94;5087475;28;20040;-78
2021/08/19 11:14:18;;;;;;;5.57;1.73;;;;;;;20.81;64.39;96252.50;5080880;28;20086;-79
2021/08/19 11:16:54;;;;;;;2.58;1.55;;;;;;;20.49;65.67;96261.44;5072137;28;20110;-80
2021/08/19 11:19:25;;;;;;;3.83;1.85;;;;;;;20.41;67.21;96256.34;5077480;28;20032;-79
2021/08/19 11:21:52;;;;;;;4.22;2.00;;;;;;;20.56;66.87;96256.06;5074673;28;20028;-79
2021/08/19 11:24:18;;;;;;;4.07;1.70;;;;;;;20.07;68.17;96254.22;5072693;28;20016;-80
2021/08/19 11:27:00;;;;;;;10.60;3.92;;;;;;;20.02;68.50;96261.03;5072174;28;20040;-80
2021/08/19 11:29:39;;;;;;;4.93;2.78;;;;;;;20.13;68.86;96256.03;5069400;28;20039;-80
2021/08/19 11:32:10;;;;;;;2.28;1.25;;;;;;;19.98;69.06;96257.16;5074191;28;20028;-79
2021/08/19 11:34:47;;;;;;;2.97;1.50;;;;;;;19.84;70.35;96257.47;5073297;28;20032;-79